sensor_id;sensor_type;location;lat;lon;timestamp;P1;durP1;ratioP1;P2;durP2;ratioP2
2305;SDS011;1161;51.922;8.896;2023-12-20T00:00:59;17.37;;;8.80;;
2305;SDS011;1161;51.922;8.896;2023-12-20T00:03:26;21.83;;;8.87;;
2305;SDS011;1161;51.922;8.896;2023-12-20T00:05:53;16.80;;;9.07;;
2305;SDS011;1161;51.922;8.896;2023-12-20T00:08:20;17.83;;;8.67;;
2305;SDS011;1161;51.922;8.896;2023-12-20T00:10:47;12.00;;;7.67;;
2305;SDS011;1161;51.922;8.896;2023-12-20T00:13:14;14.03;;;8.10;;
2305;SDS011;1161;51.922;8.896;2023-12-20T00:15:40;9.93;;;6.27;;
2305;SDS011;1161;51.922;8.896;2023-12-20T00:18:09;15.37;;;5.63;;
2305;SDS011;1161;51.922;8.896;2023-12-20T00:20:35;6.90;;;4.93;;
2305;SDS011;1161;51.922;8.896;2023-12-20T00:23:02;9.20;;;4.73;;
2305;SDS011;1161;51.922;8.896;2023-12-20T00:25:29;10.47;;;5.30;;
2305;SDS011;1161;51.922;8.896;2023-12-20T00:27:56;9.60;;;4.90;;
2305;SDS011;1161;51.922;8.896;2023-12-20T00:30:22;8.80;;;5.13;;
2305;SDS011;1161;51.922;8.896;2023-12-20T00:32:49;14.83;;;6.93;;
2305;SDS011;1161;51.922;8.896;2023-12-20T00:35:18;11.83;;;6.03;;
2305;SDS011;1161;51.922;8.896;2023-12-20T00:37:45;11.93;;;5.97;;
2305;SDS011;1161;51.922;8.896;2023-12-20T00:40:12;12.00;;;6.83;;
2305;SDS011;1161;51.922;8.896;2023-12-20T00:42:39;12.30;;;5.80;;
2305;SDS011;1161;51.922;8.896;2023-12-20T00:45:06;9.43;;;6.10;;
2305;SDS011;1161;51.922;8.896;2023-12-20T00:47:33;12.10;;;6.43;;
2305;SDS011;1161;51.922;8.896;2023-12-20T00:50:00;12.40;;;5.80;;
2305;SDS011;1161;51.922;8.896;2023-12-20T00:52:28;22.30;;;6.97;;
2305;SDS011;1161;51.922;8.896;2023-12-20T00:54:55;10.73;;;6.53;;
2305;SDS011;1161;51.922;8.896;2023-12-20T00:57:22;19.30;;;6.90;;
2305;SDS011;1161;51.922;8.896;2023-12-20T00:59:48;14.57;;;7.63;;
2305;SDS011;1161;51.922;8.896;2023-12-20T01:02:15;11.97;;;6.20;;
2305;SDS011;1161;51.922;8.896;2023-12-20T01:04:42;21.23;;;6.10;;
2305;SDS011;1161;51.922;8.896;2023-12-20T01:07:09;10.73;;;5.20;;
2305;SDS011;1161;51.922;8.896;2023-12-20T01:09:37;9.90;;;5.97;;
2305;SDS011;1161;51.922;8.896;2023-12-20T01:12:04;21.67;;;6.00;;
2305;SDS011;1161;51.922;8.896;2023-12-20T01:14:31;12.47;;;4.70;;
2305;SDS011;1161;51.922;8.896;2023-12-20T01:16:59;12.90;;;5.33;;
2305;SDS011;1161;51.922;8.896;2023-12-20T01:19:26;12.17;;;5.27;;
2305;SDS011;1161;51.922;8.896;2023-12-20T01:21:54;21.07;;;7.23;;
2305;SDS011;1161;51.922;8.896;2023-12-20T01:24:22;10.87;;;6.10;;
2305;SDS011;1161;51.922;8.896;2023-12-20T01:26:50;10.83;;;5.20;;
2305;SDS011;1161;51.922;8.896;2023-12-20T01:29:17;11.00;;;4.73;;
2305;SDS011;1161;51.922;8.896;2023-12-20T01:31:45;7.40;;;4.30;;
2305;SDS011;1161;51.922;8.896;2023-12-20T01:34:14;12.40;;;5.37;;
2305;SDS011;1161;51.922;8.896;2023-12-20T01:36:41;11.33;;;4.77;;
2305;SDS011;1161;51.922;8.896;2023-12-20T01:39:09;8.20;;;4.47;;
2305;SDS011;1161;51.922;8.896;2023-12-20T01:41:36;22.17;;;5.50;;
2305;SDS011;1161;51.922;8.896;2023-12-20T01:44:04;11.60;;;4.00;;
2305;SDS011;1161;51.922;8.896;2023-12-20T01:46:31;13.43;;;4.17;;
2305;SDS011;1161;51.922;8.896;2023-12-20T01:48:58;7.80;;;4.50;;
2305;SDS011;1161;51.922;8.896;2023-12-20T01:51:25;11.23;;;4.17;;
2305;SDS011;1161;51.922;8.896;2023-12-20T01:53:53;10.43;;;3.83;;
2305;SDS011;1161;51.922;8.896;2023-12-20T01:56:20;7.10;;;3.80;;
2305;SDS011;1161;51.922;8.896;2023-12-20T01:58:47;4.87;;;3.60;;
2305;SDS011;1161;51.922;8.896;2023-12-20T02:01:16;3.87;;;3.20;;
2305;SDS011;1161;51.922;8.896;2023-12-20T02:03:44;8.07;;;3.70;;
2305;SDS011;1161;51.922;8.896;2023-12-20T02:06:11;5.63;;;3.30;;
2305;SDS011;1161;51.922;8.896;2023-12-20T02:08:38;13.10;;;3.83;;
2305;SDS011;1161;51.922;8.896;2023-12-20T02:11:04;10.33;;;5.43;;
2305;SDS011;1161;51.922;8.896;2023-12-20T02:13:31;6.80;;;3.67;;
2305;SDS011;1161;51.922;8.896;2023-12-20T02:15:58;13.03;;;4.03;;
2305;SDS011;1161;51.922;8.896;2023-12-20T02:18:27;5.13;;;3.27;;
2305;SDS011;1161;51.922;8.896;2023-12-20T02:20:53;5.27;;;3.90;;
2305;SDS011;1161;51.922;8.896;2023-12-20T02:23:23;8.60;;;3.50;;
2305;SDS011;1161;51.922;8.896;2023-12-20T02:25:49;16.53;;;4.60;;
2305;SDS011;1161;51.922;8.896;2023-12-20T02:28:16;7.70;;;3.03;;
2305;SDS011;1161;51.922;8.896;2023-12-20T02:30:43;5.07;;;3.83;;
2305;SDS011;1161;51.922;8.896;2023-12-20T02:33:10;5.83;;;3.00;;
2305;SDS011;1161;51.922;8.896;2023-12-20T02:35:38;10.77;;;3.87;;
2305;SDS011;1161;51.922;8.896;2023-12-20T02:38:05;7.83;;;3.80;;
2305;SDS011;1161;51.922;8.896;2023-12-20T02:40:34;5.67;;;3.73;;
2305;SDS011;1161;51.922;8.896;2023-12-20T02:43:02;10.23;;;3.50;;
2305;SDS011;1161;51.922;8.896;2023-12-20T02:45:29;4.97;;;3.10;;
2305;SDS011;1161;51.922;8.896;2023-12-20T02:47:56;12.43;;;4.40;;
2305;SDS011;1161;51.922;8.896;2023-12-20T02:50:23;8.60;;;4.10;;
2305;SDS011;1161;51.922;8.896;2023-12-20T02:52:49;4.37;;;3.37;;
2305;SDS011;1161;51.922;8.896;2023-12-20T02:55:16;12.60;;;4.53;;
2305;SDS011;1161;51.922;8.896;2023-12-20T02:57:45;12.30;;;3.87;;
2305;SDS011;1161;51.922;8.896;2023-12-20T03:00:12;8.50;;;3.30;;
2305;SDS011;1161;51.922;8.896;2023-12-20T03:02:39;8.27;;;3.50;;
2305;SDS011;1161;51.922;8.896;2023-12-20T03:05:07;9.77;;;4.63;;
2305;SDS011;1161;51.922;8.896;2023-12-20T03:07:36;10.93;;;4.10;;
2305;SDS011;1161;51.922;8.896;2023-12-20T03:10:03;8.83;;;3.97;;
2305;SDS011;1161;51.922;8.896;2023-12-20T03:12:31;10.13;;;4.90;;
2305;SDS011;1161;51.922;8.896;2023-12-20T03:14:59;8.57;;;5.73;;
2305;SDS011;1161;51.922;8.896;2023-12-20T03:17:26;10.43;;;4.70;;
2305;SDS011;1161;51.922;8.896;2023-12-20T03:19:53;22.10;;;5.73;;
2305;SDS011;1161;51.922;8.896;2023-12-20T03:22:19;7.40;;;4.73;;
2305;SDS011;1161;51.922;8.896;2023-12-20T03:24:46;10.10;;;5.17;;
2305;SDS011;1161;51.922;8.896;2023-12-20T03:27:13;9.57;;;5.33;;
2305;SDS011;1161;51.922;8.896;2023-12-20T03:29:40;16.97;;;5.17;;
2305;SDS011;1161;51.922;8.896;2023-12-20T03:32:08;18.57;;;6.37;;
2305;SDS011;1161;51.922;8.896;2023-12-20T03:34:35;23.00;;;6.03;;
2305;SDS011;1161;51.922;8.896;2023-12-20T03:37:02;9.97;;;5.27;;
2305;SDS011;1161;51.922;8.896;2023-12-20T03:39:29;12.30;;;6.47;;
2305;SDS011;1161;51.922;8.896;2023-12-20T03:41:55;18.90;;;7.30;;
2305;SDS011;1161;51.922;8.896;2023-12-20T03:44:22;16.90;;;7.37;;
2305;SDS011;1161;51.922;8.896;2023-12-20T03:46:49;15.57;;;7.07;;
2305;SDS011;1161;51.922;8.896;2023-12-20T03:49:17;25.80;;;8.33;;
2305;SDS011;1161;51.922;8.896;2023-12-20T03:51:44;21.80;;;9.07;;
2305;SDS011;1161;51.922;8.896;2023-12-20T03:54:11;27.23;;;8.10;;
2305;SDS011;1161;51.922;8.896;2023-12-20T03:56:38;17.50;;;8.37;;
2305;SDS011;1161;51.922;8.896;2023-12-20T03:59:05;14.73;;;7.70;;
2305;SDS011;1161;51.922;8.896;2023-12-20T04:01:32;25.30;;;8.70;;
2305;SDS011;1161;51.922;8.896;2023-12-20T04:03:59;19.70;;;8.27;;
2305;SDS011;1161;51.922;8.896;2023-12-20T04:06:27;15.83;;;7.57;;
2305;SDS011;1161;51.922;8.896;2023-12-20T04:08:54;14.07;;;7.17;;
2305;SDS011;1161;51.922;8.896;2023-12-20T04:11:22;21.07;;;6.03;;
2305;SDS011;1161;51.922;8.896;2023-12-20T04:13:48;15.80;;;7.63;;
2305;SDS011;1161;51.922;8.896;2023-12-20T04:16:16;27.87;;;8.17;;
2305;SDS011;1161;51.922;8.896;2023-12-20T04:18:46;20.23;;;8.80;;
2305;SDS011;1161;51.922;8.896;2023-12-20T04:21:13;20.97;;;7.83;;
2305;SDS011;1161;51.922;8.896;2023-12-20T04:23:42;15.13;;;6.97;;
2305;SDS011;1161;51.922;8.896;2023-12-20T04:26:09;25.30;;;6.70;;
2305;SDS011;1161;51.922;8.896;2023-12-20T04:28:45;22.13;;;7.53;;
2305;SDS011;1161;51.922;8.896;2023-12-20T04:31:16;16.93;;;6.70;;
2305;SDS011;1161;51.922;8.896;2023-12-20T04:33:53;12.13;;;7.20;;
2305;SDS011;1161;51.922;8.896;2023-12-20T04:36:26;18.10;;;7.60;;
2305;SDS011;1161;51.922;8.896;2023-12-20T04:39:06;23.50;;;9.57;;
2305;SDS011;1161;51.922;8.896;2023-12-20T04:41:34;31.07;;;8.33;;
2305;SDS011;1161;51.922;8.896;2023-12-20T04:44:07;17.00;;;6.30;;
2305;SDS011;1161;51.922;8.896;2023-12-20T04:46:34;20.27;;;6.37;;
2305;SDS011;1161;51.922;8.896;2023-12-20T04:49:04;19.43;;;7.17;;
2305;SDS011;1161;51.922;8.896;2023-12-20T04:51:34;20.13;;;7.53;;
2305;SDS011;1161;51.922;8.896;2023-12-20T04:54:08;10.37;;;5.73;;
2305;SDS011;1161;51.922;8.896;2023-12-20T04:56:44;27.27;;;6.30;;
2305;SDS011;1161;51.922;8.896;2023-12-20T04:59:18;16.63;;;6.93;;
2305;SDS011;1161;51.922;8.896;2023-12-20T05:01:52;16.23;;;6.07;;
2305;SDS011;1161;51.922;8.896;2023-12-20T05:04:22;16.63;;;8.30;;
2305;SDS011;1161;51.922;8.896;2023-12-20T05:06:50;21.33;;;9.93;;
2305;SDS011;1161;51.922;8.896;2023-12-20T05:09:24;14.70;;;7.50;;
2305;SDS011;1161;51.922;8.896;2023-12-20T05:11:50;18.77;;;8.57;;
2305;SDS011;1161;51.922;8.896;2023-12-20T05:14:19;11.20;;;6.80;;
2305;SDS011;1161;51.922;8.896;2023-12-20T05:16:48;17.10;;;6.33;;
2305;SDS011;1161;51.922;8.896;2023-12-20T05:19:17;18.83;;;8.70;;
2305;SDS011;1161;51.922;8.896;2023-12-20T05:21:44;27.30;;;7.77;;
2305;SDS011;1161;51.922;8.896;2023-12-20T05:24:13;24.03;;;6.70;;
2305;SDS011;1161;51.922;8.896;2023-12-20T05:26:41;35.50;;;8.87;;
2305;SDS011;1161;51.922;8.896;2023-12-20T05:29:13;28.33;;;8.20;;
2305;SDS011;1161;51.922;8.896;2023-12-20T05:31:40;25.27;;;10.57;;
2305;SDS011;1161;51.922;8.896;2023-12-20T05:34:14;20.77;;;8.17;;
2305;SDS011;1161;51.922;8.896;2023-12-20T05:36:45;20.70;;;6.00;;
2305;SDS011;1161;51.922;8.896;2023-12-20T05:39:14;23.23;;;7.73;;
2305;SDS011;1161;51.922;8.896;2023-12-20T05:41:43;22.73;;;10.73;;
2305;SDS011;1161;51.922;8.896;2023-12-20T05:44:12;18.57;;;6.77;;
2305;SDS011;1161;51.922;8.896;2023-12-20T05:46:42;23.27;;;8.63;;
2305;SDS011;1161;51.922;8.896;2023-12-20T05:49:10;24.30;;;7.30;;
2305;SDS011;1161;51.922;8.896;2023-12-20T05:51:39;25.83;;;8.33;;
2305;SDS011;1161;51.922;8.896;2023-12-20T05:54:10;18.60;;;7.07;;
2305;SDS011;1161;51.922;8.896;2023-12-20T05:56:37;25.97;;;8.33;;
2305;SDS011;1161;51.922;8.896;2023-12-20T05:59:05;23.30;;;8.93;;
2305;SDS011;1161;51.922;8.896;2023-12-20T06:01:35;25.43;;;8.20;;
2305;SDS011;1161;51.922;8.896;2023-12-20T06:04:04;27.37;;;7.53;;
2305;SDS011;1161;51.922;8.896;2023-12-20T06:06:42;17.00;;;7.27;;
2305;SDS011;1161;51.922;8.896;2023-12-20T06:09:10;29.73;;;10.23;;
2305;SDS011;1161;51.922;8.896;2023-12-20T06:11:37;18.97;;;8.33;;
2305;SDS011;1161;51.922;8.896;2023-12-20T06:14:10;17.70;;;9.03;;
2305;SDS011;1161;51.922;8.896;2023-12-20T06:16:37;19.17;;;7.80;;
2305;SDS011;1161;51.922;8.896;2023-12-20T06:19:05;19.37;;;7.57;;
2305;SDS011;1161;51.922;8.896;2023-12-20T06:21:32;26.00;;;8.27;;
2305;SDS011;1161;51.922;8.896;2023-12-20T06:23:59;14.43;;;6.47;;
2305;SDS011;1161;51.922;8.896;2023-12-20T06:26:26;23.87;;;9.70;;
2305;SDS011;1161;51.922;8.896;2023-12-20T06:28:53;29.10;;;9.10;;
2305;SDS011;1161;51.922;8.896;2023-12-20T06:31:22;20.70;;;8.43;;
2305;SDS011;1161;51.922;8.896;2023-12-20T06:33:49;23.10;;;10.33;;
2305;SDS011;1161;51.922;8.896;2023-12-20T06:36:22;15.67;;;9.30;;
2305;SDS011;1161;51.922;8.896;2023-12-20T06:38:49;26.37;;;10.90;;
2305;SDS011;1161;51.922;8.896;2023-12-20T06:41:16;25.67;;;11.07;;
2305;SDS011;1161;51.922;8.896;2023-12-20T06:43:43;16.63;;;8.10;;
2305;SDS011;1161;51.922;8.896;2023-12-20T06:46:11;28.67;;;11.67;;
2305;SDS011;1161;51.922;8.896;2023-12-20T06:48:40;26.70;;;10.37;;
2305;SDS011;1161;51.922;8.896;2023-12-20T06:51:10;25.13;;;12.07;;
2305;SDS011;1161;51.922;8.896;2023-12-20T06:53:38;33.50;;;9.63;;
2305;SDS011;1161;51.922;8.896;2023-12-20T06:56:05;24.63;;;9.50;;
2305;SDS011;1161;51.922;8.896;2023-12-20T06:58:33;19.63;;;9.10;;
2305;SDS011;1161;51.922;8.896;2023-12-20T07:00:59;31.50;;;9.17;;
2305;SDS011;1161;51.922;8.896;2023-12-20T07:03:27;30.07;;;10.50;;
2305;SDS011;1161;51.922;8.896;2023-12-20T07:05:55;22.30;;;11.63;;
2305;SDS011;1161;51.922;8.896;2023-12-20T07:08:22;28.03;;;10.20;;
2305;SDS011;1161;51.922;8.896;2023-12-20T07:10:49;26.93;;;11.50;;
2305;SDS011;1161;51.922;8.896;2023-12-20T07:13:16;22.90;;;9.03;;
2305;SDS011;1161;51.922;8.896;2023-12-20T07:15:42;23.80;;;10.27;;
2305;SDS011;1161;51.922;8.896;2023-12-20T07:18:09;29.63;;;11.07;;
2305;SDS011;1161;51.922;8.896;2023-12-20T07:20:37;21.67;;;9.60;;
2305;SDS011;1161;51.922;8.896;2023-12-20T07:23:05;24.37;;;10.17;;
2305;SDS011;1161;51.922;8.896;2023-12-20T07:25:32;18.50;;;9.10;;
2305;SDS011;1161;51.922;8.896;2023-12-20T07:27:59;14.83;;;7.70;;
2305;SDS011;1161;51.922;8.896;2023-12-20T07:30:26;17.80;;;9.80;;
2305;SDS011;1161;51.922;8.896;2023-12-20T07:32:53;35.93;;;11.33;;
2305;SDS011;1161;51.922;8.896;2023-12-20T07:35:20;35.93;;;10.40;;
2305;SDS011;1161;51.922;8.896;2023-12-20T07:37:47;39.20;;;10.77;;
2305;SDS011;1161;51.922;8.896;2023-12-20T07:40:15;25.53;;;10.17;;
2305;SDS011;1161;51.922;8.896;2023-12-20T07:42:42;33.23;;;9.30;;
2305;SDS011;1161;51.922;8.896;2023-12-20T07:45:09;26.63;;;10.57;;
2305;SDS011;1161;51.922;8.896;2023-12-20T07:47:37;58.77;;;13.50;;
2305;SDS011;1161;51.922;8.896;2023-12-20T07:50:04;33.67;;;12.03;;
2305;SDS011;1161;51.922;8.896;2023-12-20T07:52:31;31.97;;;11.33;;
2305;SDS011;1161;51.922;8.896;2023-12-20T07:54:58;26.00;;;11.17;;
2305;SDS011;1161;51.922;8.896;2023-12-20T07:57:28;35.90;;;10.67;;
2305;SDS011;1161;51.922;8.896;2023-12-20T07:59:55;30.50;;;12.27;;
2305;SDS011;1161;51.922;8.896;2023-12-20T08:02:21;23.97;;;13.47;;
2305;SDS011;1161;51.922;8.896;2023-12-20T08:04:48;36.97;;;11.57;;
2305;SDS011;1161;51.922;8.896;2023-12-20T08:07:15;40.43;;;14.37;;
2305;SDS011;1161;51.922;8.896;2023-12-20T08:09:42;29.20;;;13.13;;
2305;SDS011;1161;51.922;8.896;2023-12-20T08:12:09;16.90;;;10.80;;
2305;SDS011;1161;51.922;8.896;2023-12-20T08:14:37;30.90;;;14.03;;
2305;SDS011;1161;51.922;8.896;2023-12-20T08:17:04;29.80;;;11.60;;
2305;SDS011;1161;51.922;8.896;2023-12-20T08:19:31;37.00;;;15.13;;
2305;SDS011;1161;51.922;8.896;2023-12-20T08:21:58;19.73;;;12.23;;
2305;SDS011;1161;51.922;8.896;2023-12-20T08:24:28;37.17;;;13.33;;
2305;SDS011;1161;51.922;8.896;2023-12-20T08:26:56;31.23;;;13.27;;
2305;SDS011;1161;51.922;8.896;2023-12-20T08:29:22;28.10;;;12.50;;
2305;SDS011;1161;51.922;8.896;2023-12-20T08:31:53;30.37;;;10.80;;
2305;SDS011;1161;51.922;8.896;2023-12-20T08:34:20;29.03;;;11.10;;
2305;SDS011;1161;51.922;8.896;2023-12-20T08:36:47;13.27;;;9.00;;
2305;SDS011;1161;51.922;8.896;2023-12-20T08:39:14;19.00;;;9.83;;
2305;SDS011;1161;51.922;8.896;2023-12-20T08:41:40;32.20;;;13.00;;
2305;SDS011;1161;51.922;8.896;2023-12-20T08:44:07;23.13;;;9.37;;
2305;SDS011;1161;51.922;8.896;2023-12-20T08:46:34;27.87;;;10.57;;
2305;SDS011;1161;51.922;8.896;2023-12-20T08:49:03;28.53;;;11.67;;
2305;SDS011;1161;51.922;8.896;2023-12-20T08:51:30;35.13;;;13.40;;
2305;SDS011;1161;51.922;8.896;2023-12-20T08:53:57;42.77;;;14.50;;
2305;SDS011;1161;51.922;8.896;2023-12-20T08:56:23;28.90;;;13.53;;
2305;SDS011;1161;51.922;8.896;2023-12-20T08:58:50;36.23;;;14.23;;
2305;SDS011;1161;51.922;8.896;2023-12-20T09:01:17;29.43;;;13.47;;
2305;SDS011;1161;51.922;8.896;2023-12-20T09:03:44;44.10;;;15.87;;
2305;SDS011;1161;51.922;8.896;2023-12-20T09:06:12;30.93;;;15.03;;
2305;SDS011;1161;51.922;8.896;2023-12-20T09:08:39;44.90;;;17.00;;
2305;SDS011;1161;51.922;8.896;2023-12-20T09:11:06;38.37;;;13.80;;
2305;SDS011;1161;51.922;8.896;2023-12-20T09:13:33;38.10;;;15.00;;
2305;SDS011;1161;51.922;8.896;2023-12-20T09:16:00;34.53;;;15.90;;
2305;SDS011;1161;51.922;8.896;2023-12-20T09:18:26;43.03;;;16.33;;
2305;SDS011;1161;51.922;8.896;2023-12-20T09:20:53;31.47;;;13.50;;
2305;SDS011;1161;51.922;8.896;2023-12-20T09:23:21;26.73;;;12.87;;
2305;SDS011;1161;51.922;8.896;2023-12-20T09:25:48;35.13;;;14.60;;
2305;SDS011;1161;51.922;8.896;2023-12-20T09:28:14;34.73;;;14.73;;
2305;SDS011;1161;51.922;8.896;2023-12-20T09:30:41;50.67;;;15.00;;
2305;SDS011;1161;51.922;8.896;2023-12-20T09:33:10;31.40;;;13.80;;
2305;SDS011;1161;51.922;8.896;2023-12-20T09:35:36;26.33;;;12.87;;
2305;SDS011;1161;51.922;8.896;2023-12-20T09:38:03;43.37;;;15.83;;
2305;SDS011;1161;51.922;8.896;2023-12-20T09:40:32;21.10;;;11.80;;
2305;SDS011;1161;51.922;8.896;2023-12-20T09:43:01;32.10;;;13.30;;
2305;SDS011;1161;51.922;8.896;2023-12-20T09:45:30;24.30;;;11.47;;
2305;SDS011;1161;51.922;8.896;2023-12-20T09:47:57;41.10;;;16.43;;
2305;SDS011;1161;51.922;8.896;2023-12-20T09:50:24;61.17;;;18.17;;
2305;SDS011;1161;51.922;8.896;2023-12-20T09:52:52;31.33;;;17.17;;
2305;SDS011;1161;51.922;8.896;2023-12-20T09:55:21;31.07;;;13.80;;
2305;SDS011;1161;51.922;8.896;2023-12-20T09:57:49;34.33;;;17.10;;
2305;SDS011;1161;51.922;8.896;2023-12-20T10:00:16;45.50;;;17.67;;
2305;SDS011;1161;51.922;8.896;2023-12-20T10:02:45;40.77;;;17.10;;
2305;SDS011;1161;51.922;8.896;2023-12-20T10:05:17;29.07;;;14.33;;
2305;SDS011;1161;51.922;8.896;2023-12-20T10:07:45;44.33;;;15.27;;
2305;SDS011;1161;51.922;8.896;2023-12-20T10:10:13;41.47;;;19.03;;
2305;SDS011;1161;51.922;8.896;2023-12-20T10:12:40;41.47;;;17.97;;
2305;SDS011;1161;51.922;8.896;2023-12-20T10:15:08;35.30;;;15.20;;
2305;SDS011;1161;51.922;8.896;2023-12-20T10:17:35;55.47;;;17.53;;
2305;SDS011;1161;51.922;8.896;2023-12-20T10:20:03;44.63;;;16.13;;
2305;SDS011;1161;51.922;8.896;2023-12-20T10:22:34;39.40;;;18.27;;
2305;SDS011;1161;51.922;8.896;2023-12-20T10:25:01;36.30;;;13.90;;
2305;SDS011;1161;51.922;8.896;2023-12-20T10:27:27;43.07;;;15.90;;
2305;SDS011;1161;51.922;8.896;2023-12-20T10:29:55;43.23;;;14.80;;
2305;SDS011;1161;51.922;8.896;2023-12-20T10:32:23;31.13;;;12.07;;
2305;SDS011;1161;51.922;8.896;2023-12-20T10:34:50;40.57;;;15.97;;
2305;SDS011;1161;51.922;8.896;2023-12-20T10:37:17;22.03;;;12.20;;
2305;SDS011;1161;51.922;8.896;2023-12-20T10:39:44;32.87;;;15.53;;
2305;SDS011;1161;51.922;8.896;2023-12-20T10:42:17;41.73;;;14.30;;
2305;SDS011;1161;51.922;8.896;2023-12-20T10:44:45;28.07;;;11.13;;
2305;SDS011;1161;51.922;8.896;2023-12-20T10:47:12;38.70;;;15.53;;
2305;SDS011;1161;51.922;8.896;2023-12-20T10:49:41;28.40;;;15.53;;
2305;SDS011;1161;51.922;8.896;2023-12-20T10:52:08;37.07;;;17.33;;
2305;SDS011;1161;51.922;8.896;2023-12-20T10:54:35;28.97;;;16.73;;
2305;SDS011;1161;51.922;8.896;2023-12-20T10:57:02;26.43;;;13.80;;
2305;SDS011;1161;51.922;8.896;2023-12-20T10:59:32;37.33;;;17.90;;
2305;SDS011;1161;51.922;8.896;2023-12-20T11:02:00;26.13;;;15.70;;
2305;SDS011;1161;51.922;8.896;2023-12-20T11:04:31;22.63;;;13.27;;
2305;SDS011;1161;51.922;8.896;2023-12-20T11:07:07;22.00;;;12.80;;
2305;SDS011;1161;51.922;8.896;2023-12-20T11:09:41;27.93;;;15.10;;
2305;SDS011;1161;51.922;8.896;2023-12-20T11:12:13;26.63;;;14.20;;
2305;SDS011;1161;51.922;8.896;2023-12-20T11:14:42;30.03;;;15.20;;
2305;SDS011;1161;51.922;8.896;2023-12-20T11:17:12;39.03;;;14.93;;
2305;SDS011;1161;51.922;8.896;2023-12-20T11:22:33;20.97;;;11.37;;
2305;SDS011;1161;51.922;8.896;2023-12-20T11:25:02;29.70;;;13.60;;
2305;SDS011;1161;51.922;8.896;2023-12-20T11:27:30;34.27;;;11.80;;
2305;SDS011;1161;51.922;8.896;2023-12-20T11:29:58;21.93;;;12.50;;
2305;SDS011;1161;51.922;8.896;2023-12-20T11:32:29;26.77;;;12.57;;
2305;SDS011;1161;51.922;8.896;2023-12-20T11:34:56;42.77;;;12.97;;
2305;SDS011;1161;51.922;8.896;2023-12-20T11:37:28;38.53;;;11.80;;
2305;SDS011;1161;51.922;8.896;2023-12-20T11:39:57;29.53;;;10.27;;
2305;SDS011;1161;51.922;8.896;2023-12-20T11:42:27;42.30;;;13.20;;
2305;SDS011;1161;51.922;8.896;2023-12-20T11:44:54;25.67;;;10.87;;
2305;SDS011;1161;51.922;8.896;2023-12-20T11:47:22;19.07;;;8.87;;
2305;SDS011;1161;51.922;8.896;2023-12-20T11:49:49;19.57;;;6.40;;
2305;SDS011;1161;51.922;8.896;2023-12-20T11:52:16;20.33;;;8.23;;
2305;SDS011;1161;51.922;8.896;2023-12-20T11:54:43;47.17;;;8.20;;
2305;SDS011;1161;51.922;8.896;2023-12-20T11:57:11;37.90;;;9.97;;
2305;SDS011;1161;51.922;8.896;2023-12-20T11:59:38;18.13;;;5.10;;
2305;SDS011;1161;51.922;8.896;2023-12-20T12:02:05;16.27;;;7.70;;
2305;SDS011;1161;51.922;8.896;2023-12-20T12:04:32;21.77;;;8.37;;
2305;SDS011;1161;51.922;8.896;2023-12-20T12:07:00;27.60;;;10.80;;
2305;SDS011;1161;51.922;8.896;2023-12-20T12:09:28;15.00;;;7.23;;
2305;SDS011;1161;51.922;8.896;2023-12-20T12:11:55;18.90;;;6.63;;
2305;SDS011;1161;51.922;8.896;2023-12-20T12:14:23;10.33;;;6.47;;
2305;SDS011;1161;51.922;8.896;2023-12-20T12:16:50;14.60;;;5.83;;
2305;SDS011;1161;51.922;8.896;2023-12-20T12:19:21;12.47;;;6.40;;
2305;SDS011;1161;51.922;8.896;2023-12-20T12:21:48;20.50;;;6.30;;
2305;SDS011;1161;51.922;8.896;2023-12-20T12:24:19;19.30;;;7.20;;
2305;SDS011;1161;51.922;8.896;2023-12-20T12:26:49;9.27;;;5.07;;
2305;SDS011;1161;51.922;8.896;2023-12-20T12:29:16;13.13;;;4.30;;
2305;SDS011;1161;51.922;8.896;2023-12-20T12:31:44;12.23;;;5.30;;
2305;SDS011;1161;51.922;8.896;2023-12-20T12:34:11;12.73;;;6.07;;
2305;SDS011;1161;51.922;8.896;2023-12-20T12:36:39;18.60;;;5.20;;
2305;SDS011;1161;51.922;8.896;2023-12-20T12:39:06;17.87;;;5.80;;
2305;SDS011;1161;51.922;8.896;2023-12-20T12:41:33;11.70;;;4.70;;
2305;SDS011;1161;51.922;8.896;2023-12-20T12:44:00;13.37;;;5.93;;
2305;SDS011;1161;51.922;8.896;2023-12-20T12:46:27;12.07;;;4.93;;
2305;SDS011;1161;51.922;8.896;2023-12-20T12:48:55;8.70;;;4.90;;
2305;SDS011;1161;51.922;8.896;2023-12-20T12:51:22;19.87;;;6.83;;
2305;SDS011;1161;51.922;8.896;2023-12-20T12:53:49;23.47;;;5.00;;
2305;SDS011;1161;51.922;8.896;2023-12-20T12:56:16;24.43;;;5.77;;
2305;SDS011;1161;51.922;8.896;2023-12-20T12:58:43;15.47;;;6.10;;
2305;SDS011;1161;51.922;8.896;2023-12-20T13:01:10;12.80;;;6.17;;
2305;SDS011;1161;51.922;8.896;2023-12-20T13:03:37;17.00;;;6.50;;
2305;SDS011;1161;51.922;8.896;2023-12-20T13:06:05;35.50;;;14.33;;
2305;SDS011;1161;51.922;8.896;2023-12-20T13:08:34;16.83;;;6.03;;
2305;SDS011;1161;51.922;8.896;2023-12-20T13:11:01;17.73;;;6.60;;
2305;SDS011;1161;51.922;8.896;2023-12-20T13:13:29;14.53;;;5.30;;
2305;SDS011;1161;51.922;8.896;2023-12-20T13:15:56;23.30;;;6.90;;
2305;SDS011;1161;51.922;8.896;2023-12-20T13:18:23;13.87;;;5.40;;
2305;SDS011;1161;51.922;8.896;2023-12-20T13:20:50;24.87;;;5.90;;
2305;SDS011;1161;51.922;8.896;2023-12-20T13:23:18;17.00;;;7.07;;
2305;SDS011;1161;51.922;8.896;2023-12-20T13:25:45;10.23;;;5.30;;
2305;SDS011;1161;51.922;8.896;2023-12-20T13:28:12;22.23;;;6.23;;
2305;SDS011;1161;51.922;8.896;2023-12-20T13:30:39;17.43;;;6.10;;
2305;SDS011;1161;51.922;8.896;2023-12-20T13:33:06;15.40;;;6.00;;
2305;SDS011;1161;51.922;8.896;2023-12-20T13:35:33;19.37;;;5.03;;
2305;SDS011;1161;51.922;8.896;2023-12-20T13:38:00;17.00;;;5.67;;
2305;SDS011;1161;51.922;8.896;2023-12-20T13:40:28;22.60;;;6.70;;
2305;SDS011;1161;51.922;8.896;2023-12-20T13:42:55;13.97;;;7.43;;
2305;SDS011;1161;51.922;8.896;2023-12-20T13:45:22;13.67;;;5.33;;
2305;SDS011;1161;51.922;8.896;2023-12-20T13:47:50;13.50;;;6.47;;
2305;SDS011;1161;51.922;8.896;2023-12-20T13:50:17;7.40;;;5.80;;
2305;SDS011;1161;51.922;8.896;2023-12-20T13:52:44;7.33;;;5.20;;
2305;SDS011;1161;51.922;8.896;2023-12-20T13:55:11;4.20;;;2.70;;
2305;SDS011;1161;51.922;8.896;2023-12-20T13:57:39;6.10;;;1.63;;
2305;SDS011;1161;51.922;8.896;2023-12-20T14:00:07;19.23;;;3.50;;
2305;SDS011;1161;51.922;8.896;2023-12-20T14:02:40;3.97;;;2.60;;
2305;SDS011;1161;51.922;8.896;2023-12-20T14:05:07;11.33;;;3.20;;
2305;SDS011;1161;51.922;8.896;2023-12-20T14:07:34;8.90;;;4.53;;
2305;SDS011;1161;51.922;8.896;2023-12-20T14:10:01;6.33;;;2.53;;
2305;SDS011;1161;51.922;8.896;2023-12-20T14:12:28;6.80;;;2.10;;
2305;SDS011;1161;51.922;8.896;2023-12-20T14:14:56;10.70;;;2.67;;
2305;SDS011;1161;51.922;8.896;2023-12-20T14:17:23;6.73;;;1.90;;
2305;SDS011;1161;51.922;8.896;2023-12-20T14:19:50;6.00;;;2.20;;
2305;SDS011;1161;51.922;8.896;2023-12-20T14:22:19;2.17;;;1.20;;
2305;SDS011;1161;51.922;8.896;2023-12-20T14:24:47;7.60;;;2.70;;
2305;SDS011;1161;51.922;8.896;2023-12-20T14:27:14;1.83;;;1.03;;
2305;SDS011;1161;51.922;8.896;2023-12-20T14:29:40;5.83;;;2.90;;
2305;SDS011;1161;51.922;8.896;2023-12-20T14:32:08;3.70;;;1.60;;
2305;SDS011;1161;51.922;8.896;2023-12-20T14:34:35;2.87;;;1.27;;
2305;SDS011;1161;51.922;8.896;2023-12-20T14:37:03;6.83;;;2.30;;
2305;SDS011;1161;51.922;8.896;2023-12-20T14:39:30;1.70;;;1.60;;
2305;SDS011;1161;51.922;8.896;2023-12-20T14:41:57;4.87;;;1.70;;
2305;SDS011;1161;51.922;8.896;2023-12-20T14:44:24;12.53;;;2.07;;
2305;SDS011;1161;51.922;8.896;2023-12-20T14:46:51;5.30;;;1.67;;
2305;SDS011;1161;51.922;8.896;2023-12-20T14:49:19;5.27;;;1.80;;
2305;SDS011;1161;51.922;8.896;2023-12-20T14:51:46;4.30;;;2.73;;
2305;SDS011;1161;51.922;8.896;2023-12-20T14:54:13;9.43;;;2.00;;
2305;SDS011;1161;51.922;8.896;2023-12-20T14:56:40;4.23;;;2.00;;
2305;SDS011;1161;51.922;8.896;2023-12-20T14:59:06;7.37;;;2.40;;
2305;SDS011;1161;51.922;8.896;2023-12-20T15:01:34;6.00;;;2.30;;
2305;SDS011;1161;51.922;8.896;2023-12-20T15:04:01;4.70;;;3.87;;
2305;SDS011;1161;51.922;8.896;2023-12-20T15:06:30;2.70;;;2.20;;